createdAt,value
2018-03-03T00:01:29.646Z,-0.60
2018-03-03T00:03:57.076Z,-0.56
2018-03-03T00:06:24.495Z,-0.55
2018-03-03T00:08:51.910Z,-0.62
2018-03-03T00:11:19.338Z,-0.70
2018-03-03T00:13:46.754Z,-0.60
2018-03-03T00:16:14.190Z,-0.53
2018-03-03T00:18:41.613Z,-0.47
2018-03-03T00:21:09.019Z,-0.46
2018-03-03T00:23:36.455Z,-0.51
2018-03-03T00:26:03.917Z,-0.67
2018-03-03T00:28:31.347Z,-0.64
2018-03-03T00:30:58.762Z,-0.58
2018-03-03T00:33:26.178Z,-0.59
2018-03-03T00:35:53.599Z,-0.64
2018-03-03T00:38:21.013Z,-0.67
2018-03-03T00:40:48.454Z,-0.60
2018-03-03T00:43:15.881Z,-0.56
2018-03-03T00:45:43.294Z,-0.53
2018-03-03T00:48:10.719Z,-0.60
2018-03-03T00:50:38.137Z,-0.62
2018-03-03T00:53:05.568Z,-0.51
2018-03-03T00:55:32.985Z,-0.60
2018-03-03T00:58:00.406Z,-0.62
2018-03-03T01:00:27.825Z,-0.62
2018-03-03T01:02:55.238Z,-0.61
2018-03-03T01:05:22.678Z,-0.66
2018-03-03T01:07:50.090Z,-0.64
2018-03-03T01:10:17.518Z,-0.61
2018-03-03T01:12:44.938Z,-0.61
2018-03-03T01:15:12.367Z,-0.56
2018-03-03T01:17:39.798Z,-0.65
2018-03-03T01:20:07.219Z,-0.61
2018-03-03T01:22:34.651Z,-0.60
2018-03-03T01:25:02.082Z,-0.66
2018-03-03T01:27:29.512Z,-0.72
2018-03-03T01:29:56.950Z,-0.66
2018-03-03T01:32:24.371Z,-0.61
2018-03-03T01:34:51.785Z,-0.64
2018-03-03T01:37:19.211Z,-0.61
2018-03-03T01:39:46.693Z,-0.60
2018-03-03T01:42:14.107Z,-0.63
2018-03-03T01:44:41.526Z,-0.68
2018-03-03T01:47:08.970Z,-0.66
2018-03-03T01:49:36.391Z,-0.71
2018-03-03T01:52:03.801Z,-0.66
2018-03-03T01:54:31.221Z,-0.59
2018-03-03T01:56:58.630Z,-0.59
2018-03-03T01:59:26.050Z,-0.54
2018-03-03T02:01:53.471Z,-0.55
2018-03-03T02:04:20.885Z,-0.53
2018-03-03T02:06:48.314Z,-0.49
2018-03-03T02:09:15.731Z,-0.51
2018-03-03T02:11:43.208Z,-0.58
2018-03-03T02:14:10.622Z,-0.48
2018-03-03T02:16:38.041Z,-0.40
2018-03-03T02:19:05.470Z,-0.45
2018-03-03T02:21:32.877Z,-0.47
2018-03-03T02:24:00.295Z,-0.54
2018-03-03T02:26:27.718Z,-0.49
2018-03-03T02:28:55.134Z,-0.44
2018-03-03T02:31:22.570Z,-0.53
2018-03-03T02:33:49.989Z,-0.52
2018-03-03T02:36:17.408Z,-0.54
2018-03-03T02:38:44.832Z,-0.52
2018-03-03T02:41:12.245Z,-0.49
2018-03-03T02:43:39.683Z,-0.38
2018-03-03T02:46:07.098Z,-0.41
2018-03-03T02:48:34.511Z,-0.45
2018-03-03T02:51:01.953Z,-0.41
2018-03-03T02:53:29.357Z,-0.42
2018-03-03T02:55:56.782Z,-0.43
2018-03-03T02:58:24.209Z,-0.42
2018-03-03T03:00:51.647Z,-0.38
2018-03-03T03:03:19.070Z,-0.45
2018-03-03T03:05:46.490Z,-0.46
2018-03-03T03:08:13.920Z,-0.37
2018-03-03T03:10:41.354Z,-0.35
2018-03-03T03:13:08.773Z,-0.33
2018-03-03T03:15:36.202Z,-0.37
2018-03-03T03:18:03.618Z,-0.39
2018-03-03T03:20:31.057Z,-0.34
2018-03-03T03:22:58.490Z,-0.34
2018-03-03T03:25:25.905Z,-0.33
2018-03-03T03:27:53.326Z,-0.31
2018-03-03T03:30:20.748Z,-0.42
2018-03-03T03:32:48.170Z,-0.42
2018-03-03T03:35:15.588Z,-0.48
2018-03-03T03:37:43.018Z,-0.38
2018-03-03T03:40:10.445Z,-0.38
2018-03-03T03:42:37.858Z,-0.33
2018-03-03T03:45:05.290Z,-0.30
2018-03-03T03:47:32.713Z,-0.31
2018-03-03T03:50:00.134Z,-0.27
2018-03-03T03:52:27.551Z,-0.21
2018-03-03T03:54:54.994Z,-0.15
2018-03-03T03:57:22.409Z,-0.17
2018-03-03T03:59:49.826Z,-0.19
2018-03-03T04:02:17.250Z,-0.31
2018-03-03T04:04:44.668Z,-0.35
2018-03-03T04:07:12.094Z,-0.30
2018-03-03T04:09:39.510Z,-0.23
2018-03-03T04:12:06.948Z,-0.13
2018-03-03T04:14:34.364Z,-0.17
2018-03-03T04:17:01.774Z,-0.11
2018-03-03T04:19:29.197Z,-0.24
2018-03-03T04:21:56.621Z,-0.12
2018-03-03T04:24:24.050Z,-0.03
2018-03-03T04:26:51.482Z,0.03
2018-03-03T04:29:18.913Z,-0.02
2018-03-03T04:31:46.349Z,0.00
2018-03-03T04:34:13.760Z,0.00
2018-03-03T04:36:41.182Z,0.02
2018-03-03T04:39:08.593Z,0.04
2018-03-03T04:41:36.023Z,0.04
2018-03-03T04:44:03.430Z,0.00
2018-03-03T04:46:30.845Z,0.07
2018-03-03T04:48:58.265Z,0.07
2018-03-03T04:51:25.686Z,-0.04
2018-03-03T04:53:53.115Z,-0.02
2018-03-03T04:56:20.541Z,0.00
2018-03-03T05:02:06.525Z,0.00
2018-03-03T05:07:35.689Z,0.06
2018-03-03T05:10:03.143Z,0.11
2018-03-03T05:12:46.214Z,0.14
2018-03-03T05:15:19.125Z,0.20
2018-03-03T05:17:52.081Z,0.18
2018-03-03T05:20:24.946Z,0.16
2018-03-03T05:22:57.858Z,0.14
2018-03-03T05:28:44.385Z,0.00
2018-03-03T05:31:17.486Z,-0.04
2018-03-03T05:33:50.366Z,-0.06
2018-03-03T05:36:23.321Z,-0.01
2018-03-03T05:38:56.246Z,0.01
2018-03-03T05:41:29.400Z,-0.09
2018-03-03T05:43:58.747Z,-0.12
2018-03-03T05:49:37.469Z,-0.04
2018-03-03T05:52:04.911Z,-0.01
2018-03-03T05:54:37.798Z,-0.02
2018-03-03T05:57:11.800Z,-0.02
2018-03-03T05:59:44.745Z,-0.09
2018-03-03T06:02:17.711Z,0.02
2018-03-03T06:04:45.126Z,-0.02
2018-03-03T06:07:18.151Z,0.06
2018-03-03T06:09:55.475Z,0.01
2018-03-03T06:12:22.916Z,0.06
2018-03-03T06:14:50.337Z,0.05
2018-03-03T06:17:17.762Z,0.03
2018-03-03T06:19:45.205Z,-0.03
2018-03-03T06:22:12.610Z,0.01
2018-03-03T06:24:40.046Z,-0.04
2018-03-03T06:27:07.471Z,-0.04
2018-03-03T06:29:34.898Z,-0.10
2018-03-03T06:32:02.331Z,-0.03
2018-03-03T06:34:29.750Z,0.00
2018-03-03T06:36:57.171Z,0.09
2018-03-03T06:39:24.590Z,0.08
2018-03-03T06:41:52.002Z,0.17
2018-03-03T06:44:19.459Z,0.16
2018-03-03T06:46:46.855Z,0.15
2018-03-03T06:49:14.286Z,0.22
2018-03-03T06:51:41.701Z,0.18
2018-03-03T06:54:09.113Z,0.13
2018-03-03T06:56:36.543Z,0.07
2018-03-03T06:59:03.961Z,0.18
2018-03-03T07:01:31.397Z,0.15
2018-03-03T07:03:58.809Z,0.22
2018-03-03T07:06:26.225Z,0.14
2018-03-03T07:08:53.642Z,0.20
2018-03-03T07:11:21.049Z,0.18
2018-03-03T07:13:48.480Z,0.22
2018-03-03T07:16:15.894Z,0.39
2018-03-03T07:18:43.314Z,0.49
2018-03-03T07:21:10.754Z,0.60
2018-03-03T07:23:38.162Z,0.68
2018-03-03T07:26:05.582Z,0.75
2018-03-03T07:28:32.997Z,0.72
2018-03-03T07:31:00.409Z,0.75
2018-03-03T07:33:27.837Z,0.76
2018-03-03T07:35:55.247Z,0.80
2018-03-03T07:38:22.687Z,0.79
2018-03-03T07:40:50.109Z,0.87
2018-03-03T07:43:17.518Z,0.94
2018-03-03T07:45:44.952Z,0.89
2018-03-03T07:48:12.362Z,0.98
2018-03-03T07:50:44.146Z,0.92
2018-03-03T07:53:11.578Z,1.03
2018-03-03T07:55:38.996Z,1.01
2018-03-03T07:58:06.410Z,1.14
2018-03-03T08:00:33.821Z,1.28
2018-03-03T08:03:01.246Z,1.29
2018-03-03T08:05:28.676Z,1.28
2018-03-03T08:07:56.110Z,1.28
2018-03-03T08:10:23.539Z,1.37
2018-03-03T08:12:50.985Z,1.46
2018-03-03T08:15:18.385Z,1.38
2018-03-03T08:17:45.800Z,1.54
2018-03-03T08:20:13.218Z,1.45
2018-03-03T08:22:40.635Z,1.39
2018-03-03T08:25:08.048Z,1.42
2018-03-03T08:27:35.487Z,1.50
2018-03-03T08:30:02.927Z,1.51
2018-03-03T08:32:30.378Z,1.34
2018-03-03T08:34:57.815Z,1.46
2018-03-03T08:37:25.238Z,1.32
2018-03-03T08:39:52.671Z,1.43
2018-03-03T08:42:20.087Z,1.49
2018-03-03T08:44:47.521Z,1.51
2018-03-03T08:47:14.938Z,1.61
2018-03-03T08:49:42.358Z,1.76
2018-03-03T08:52:09.807Z,1.71
2018-03-03T08:54:37.235Z,1.81
2018-03-03T08:57:04.659Z,2.02
2018-03-03T08:59:32.111Z,1.91
2018-03-03T09:01:59.526Z,1.94
2018-03-03T09:04:27.001Z,2.08
2018-03-03T09:06:54.382Z,2.07
2018-03-03T09:09:21.879Z,2.17
2018-03-03T09:11:49.299Z,2.39
2018-03-03T09:14:16.730Z,2.34
2018-03-03T09:16:44.155Z,2.68
2018-03-03T09:19:11.574Z,2.74
2018-03-03T09:21:38.997Z,2.84
2018-03-03T09:24:06.422Z,2.74
2018-03-03T09:26:33.842Z,2.56
2018-03-03T09:29:01.279Z,2.66
2018-03-03T09:31:28.739Z,2.75
2018-03-03T09:33:56.630Z,2.69
2018-03-03T09:36:24.044Z,2.54
2018-03-03T09:38:51.497Z,2.45
2018-03-03T09:41:18.914Z,2.67
2018-03-03T09:43:46.367Z,2.87
2018-03-03T09:46:13.782Z,2.99
2018-03-03T09:48:41.206Z,3.19
2018-03-03T09:51:08.642Z,3.44
2018-03-03T09:53:36.065Z,3.59
2018-03-03T09:56:03.491Z,3.69
2018-03-03T09:58:30.911Z,3.59
2018-03-03T10:00:58.328Z,3.69
2018-03-03T10:03:25.850Z,3.80
2018-03-03T10:05:53.258Z,4.26
2018-03-03T10:08:20.706Z,4.15
2018-03-03T10:10:48.122Z,4.07
2018-03-03T10:13:15.543Z,4.31
2018-03-03T10:15:42.980Z,4.47
2018-03-03T10:18:10.410Z,4.35
2018-03-03T10:20:37.838Z,4.57
2018-03-03T10:23:05.265Z,4.98
2018-03-03T10:25:32.692Z,5.50
2018-03-03T10:28:00.106Z,5.93
2018-03-03T10:30:27.565Z,6.30
2018-03-03T10:32:54.969Z,6.37
2018-03-03T10:35:22.395Z,6.74
2018-03-03T10:37:49.797Z,6.80
2018-03-03T10:40:17.214Z,6.57
2018-03-03T10:42:44.630Z,6.73
2018-03-03T10:45:12.031Z,6.74
2018-03-03T10:47:39.453Z,6.72
2018-03-03T10:50:06.930Z,7.28
2018-03-03T10:52:34.346Z,7.38
2018-03-03T10:55:01.760Z,7.42
2018-03-03T10:57:29.169Z,7.57
2018-03-03T10:59:56.593Z,7.39
2018-03-03T11:02:24.006Z,7.40
2018-03-03T11:04:51.406Z,7.67
2018-03-03T11:07:18.815Z,7.63
2018-03-03T11:09:46.221Z,7.35
2018-03-03T11:12:13.651Z,7.03
2018-03-03T11:14:41.073Z,6.93
2018-03-03T11:17:08.477Z,7.19
2018-03-03T11:19:35.904Z,7.37
2018-03-03T11:22:03.323Z,7.72
2018-03-03T11:24:31.672Z,8.24
2018-03-03T11:26:59.105Z,7.91
2018-03-03T11:29:27.113Z,7.69
2018-03-03T11:31:54.532Z,7.83
2018-03-03T11:34:21.949Z,8.12
2018-03-03T11:36:49.398Z,8.27
2018-03-03T11:39:16.803Z,8.56
2018-03-03T11:41:44.211Z,8.38
2018-03-03T11:44:11.707Z,8.35
2018-03-03T11:46:39.111Z,8.28
2018-03-03T11:49:06.539Z,8.46
2018-03-03T11:51:33.974Z,8.20
2018-03-03T11:54:01.396Z,8.12
2018-03-03T11:56:28.828Z,8.26
2018-03-03T11:58:56.689Z,8.18
2018-03-03T12:01:27.401Z,8.36
2018-03-03T12:03:54.852Z,8.69
2018-03-03T12:06:22.282Z,8.56
2018-03-03T12:08:49.723Z,8.31
2018-03-03T12:11:17.121Z,8.29
2018-03-03T12:13:44.615Z,8.37
2018-03-03T12:16:12.396Z,8.42
2018-03-03T12:18:39.826Z,8.38
2018-03-03T12:21:07.246Z,8.56
2018-03-03T12:23:34.686Z,8.35
2018-03-03T12:26:02.101Z,8.09
2018-03-03T12:28:29.523Z,7.81
2018-03-03T12:30:56.941Z,7.93
2018-03-03T12:33:24.353Z,7.78
2018-03-03T12:35:51.767Z,7.79
2018-03-03T12:38:19.197Z,7.23
2018-03-03T12:40:46.610Z,7.22
2018-03-03T12:43:14.046Z,7.05
2018-03-03T12:45:41.462Z,6.91
2018-03-03T12:48:08.954Z,6.61
2018-03-03T12:50:36.388Z,6.55
2018-03-03T12:53:03.971Z,6.37
2018-03-03T12:55:31.394Z,6.31
2018-03-03T12:57:58.847Z,6.29
2018-03-03T13:00:26.266Z,6.48
2018-03-03T13:02:53.694Z,6.69
2018-03-03T13:05:21.121Z,6.57
2018-03-03T13:07:48.539Z,6.47
2018-03-03T13:10:15.946Z,6.61
2018-03-03T13:12:43.430Z,6.71
2018-03-03T13:15:10.826Z,6.66
2018-03-03T13:17:38.237Z,6.63
2018-03-03T13:20:05.637Z,6.65
2018-03-03T13:22:33.054Z,6.71
2018-03-03T13:25:00.458Z,6.93
2018-03-03T13:27:27.932Z,6.96
2018-03-03T13:29:55.285Z,7.22
2018-03-03T13:32:22.697Z,7.17
2018-03-03T13:34:50.133Z,7.16
2018-03-03T13:37:17.552Z,7.21
2018-03-03T13:39:44.989Z,7.17
2018-03-03T13:42:12.415Z,7.29
2018-03-03T13:44:39.830Z,7.30
2018-03-03T13:47:07.264Z,7.37
2018-03-03T13:49:34.689Z,7.27
2018-03-03T13:52:02.119Z,7.40
2018-03-03T13:54:29.526Z,7.44
2018-03-03T13:56:56.966Z,7.39
2018-03-03T13:59:24.382Z,7.22
2018-03-03T14:01:51.852Z,7.29
2018-03-03T14:04:19.253Z,7.38
2018-03-03T14:06:46.707Z,7.15
2018-03-03T14:09:14.122Z,7.07
2018-03-03T14:11:41.521Z,7.06
2018-03-03T14:14:08.966Z,6.99
2018-03-03T14:16:36.409Z,7.03
2018-03-03T14:19:03.845Z,7.07
2018-03-03T14:21:31.274Z,7.23
2018-03-03T14:23:58.674Z,7.25
2018-03-03T14:26:26.109Z,7.30
2018-03-03T14:28:53.517Z,7.34
2018-03-03T14:31:20.946Z,7.43
2018-03-03T14:33:48.369Z,7.59
2018-03-03T14:36:15.798Z,7.57
2018-03-03T14:38:43.212Z,7.37
2018-03-03T14:41:10.634Z,7.40
2018-03-03T14:43:38.102Z,7.08
2018-03-03T14:46:05.501Z,6.95
2018-03-03T14:48:32.950Z,7.11
2018-03-03T14:51:00.399Z,6.95
2018-03-03T14:53:27.803Z,7.11
2018-03-03T14:55:56.270Z,7.11
2018-03-03T14:58:23.750Z,7.23
2018-03-03T15:00:51.189Z,7.01
2018-03-03T15:03:19.009Z,7.00
2018-03-03T15:05:46.434Z,6.96
2018-03-03T15:08:13.911Z,6.98
2018-03-03T15:10:41.342Z,6.94
2018-03-03T15:13:08.766Z,6.84
2018-03-03T15:15:36.189Z,6.85
2018-03-03T15:18:03.662Z,6.91
2018-03-03T15:20:31.103Z,6.72
2018-03-03T15:22:58.542Z,6.73
2018-03-03T15:25:25.959Z,6.75
2018-03-03T15:27:53.369Z,6.53
2018-03-03T15:30:20.790Z,6.40
2018-03-03T15:32:48.204Z,6.28
2018-03-03T15:35:15.603Z,6.30
2018-03-03T15:37:43.026Z,6.13
2018-03-03T15:40:10.439Z,6.14
2018-03-03T15:42:37.862Z,5.95
2018-03-03T15:45:05.282Z,5.89
2018-03-03T15:47:32.682Z,5.80
2018-03-03T15:50:00.100Z,5.70
2018-03-03T15:52:27.545Z,5.60
2018-03-03T15:54:54.942Z,5.55
2018-03-03T15:57:22.349Z,5.55
2018-03-03T15:59:49.755Z,5.33
2018-03-03T16:02:17.182Z,5.22
2018-03-03T16:04:44.581Z,5.26
2018-03-03T16:07:12.026Z,5.21
2018-03-03T16:09:39.435Z,5.22
2018-03-03T16:12:06.843Z,5.13
2018-03-03T16:14:34.255Z,5.15
2018-03-03T16:17:01.669Z,5.11
2018-03-03T16:19:29.086Z,5.08
2018-03-03T16:21:56.489Z,4.96
2018-03-03T16:24:24.005Z,4.93
2018-03-03T16:26:51.434Z,4.90
2018-03-03T16:29:18.837Z,4.95
2018-03-03T16:31:46.274Z,4.90
2018-03-03T16:34:13.693Z,4.89
2018-03-03T16:36:41.109Z,4.78
2018-03-03T16:39:08.529Z,4.72
2018-03-03T16:41:35.946Z,4.68
2018-03-03T16:44:03.378Z,4.65
2018-03-03T16:46:30.804Z,4.63
2018-03-03T16:48:58.283Z,4.54
2018-03-03T16:51:25.649Z,4.41
2018-03-03T16:53:53.066Z,4.30
2018-03-03T16:56:20.485Z,4.13
2018-03-03T16:58:47.910Z,4.10
2018-03-03T17:01:15.349Z,4.13
2018-03-03T17:03:42.786Z,4.03
2018-03-03T17:06:10.209Z,4.01
2018-03-03T17:08:37.631Z,3.97
2018-03-03T17:11:05.051Z,3.88
2018-03-03T17:13:32.486Z,3.78
2018-03-03T17:15:59.938Z,3.78
2018-03-03T17:18:27.354Z,3.70
2018-03-03T17:20:55.238Z,3.70
2018-03-03T17:23:22.674Z,3.66
2018-03-03T17:25:50.129Z,3.62
2018-03-03T17:28:17.551Z,3.62
2018-03-03T17:30:44.975Z,3.49
2018-03-03T17:33:12.401Z,3.49
2018-03-03T17:35:39.817Z,3.37
2018-03-03T17:38:07.287Z,3.29
2018-03-03T17:40:34.689Z,3.25
2018-03-03T17:43:02.104Z,3.23
2018-03-03T17:45:29.517Z,3.22
2018-03-03T17:48:00.408Z,3.20
2018-03-03T17:50:27.826Z,3.14
2018-03-03T17:52:55.583Z,3.06
2018-03-03T17:55:23.001Z,3.02
2018-03-03T17:57:50.418Z,3.01
2018-03-03T18:00:17.839Z,2.99
2018-03-03T18:03:04.573Z,2.89
2018-03-03T18:05:31.981Z,2.86
2018-03-03T18:07:59.650Z,2.87
2018-03-03T18:10:34.726Z,2.84
2018-03-03T18:13:02.134Z,2.84
2018-03-03T18:15:29.562Z,2.66
2018-03-03T18:17:57.025Z,2.66
2018-03-03T18:20:24.434Z,2.65
2018-03-03T18:22:51.864Z,2.71
2018-03-03T18:25:19.278Z,2.67
2018-03-03T18:27:46.719Z,2.53
2018-03-03T18:30:14.133Z,2.56
2018-03-03T18:32:41.546Z,2.53
2018-03-03T18:35:26.314Z,2.48
2018-03-03T18:37:53.738Z,2.50
2018-03-03T18:40:21.173Z,2.43
2018-03-03T18:42:48.582Z,2.45
2018-03-03T18:45:15.998Z,2.42
2018-03-03T18:50:37.389Z,2.39
2018-03-03T18:53:04.818Z,2.40
2018-03-03T18:55:32.246Z,2.40
2018-03-03T18:57:59.654Z,2.41
2018-03-03T19:00:27.087Z,2.36
2018-03-03T19:02:54.494Z,2.44
2018-03-03T19:05:21.925Z,2.52
2018-03-03T19:07:49.385Z,2.43
2018-03-03T19:10:16.842Z,2.42
2018-03-03T19:12:44.267Z,2.31
2018-03-03T19:15:11.673Z,2.22
2018-03-03T19:17:39.114Z,2.22
2018-03-03T19:20:06.526Z,2.20
2018-03-03T19:22:33.942Z,2.22
2018-03-03T19:25:01.367Z,2.27
2018-03-03T19:27:28.798Z,2.27
2018-03-03T19:29:56.222Z,2.14
2018-03-03T19:32:23.638Z,2.12
2018-03-03T19:34:51.054Z,2.10
2018-03-03T19:37:18.482Z,2.10
2018-03-03T19:39:45.889Z,2.13
2018-03-03T19:42:13.382Z,2.10
2018-03-03T19:44:40.794Z,2.05
2018-03-03T19:47:08.215Z,2.10
2018-03-03T19:49:35.713Z,2.11
2018-03-03T19:52:03.071Z,2.12
2018-03-03T19:54:30.491Z,2.20
2018-03-03T19:56:57.914Z,2.27
2018-03-03T19:59:25.330Z,2.35
2018-03-03T20:01:52.764Z,2.24
2018-03-03T20:04:20.186Z,2.21
2018-03-03T20:06:47.618Z,2.17
2018-03-03T20:09:15.032Z,2.08
2018-03-03T20:11:42.442Z,2.05
2018-03-03T20:14:10.005Z,2.04
2018-03-03T20:16:37.426Z,2.06
2018-03-03T20:19:04.859Z,2.01
2018-03-03T20:21:32.272Z,1.95
2018-03-03T20:23:59.705Z,1.97
2018-03-03T20:26:27.126Z,1.92
2018-03-03T20:28:54.550Z,1.86
2018-03-03T20:31:21.990Z,1.92
2018-03-03T20:33:49.411Z,2.02
2018-03-03T20:36:16.823Z,2.06
2018-03-03T20:38:44.250Z,2.14
2018-03-03T20:41:11.667Z,2.20
2018-03-03T20:43:39.099Z,2.12
2018-03-03T20:46:06.519Z,2.07
2018-03-03T20:48:33.947Z,2.05
2018-03-03T20:51:01.367Z,1.99
2018-03-03T20:53:28.787Z,1.98
2018-03-03T20:55:56.219Z,2.02
2018-03-03T20:58:23.639Z,2.00
2018-03-03T21:00:51.055Z,1.98
2018-03-03T21:03:18.482Z,1.95
2018-03-03T21:05:45.904Z,1.91
2018-03-03T21:08:13.327Z,1.91
2018-03-03T21:10:40.740Z,1.88
2018-03-03T21:13:08.169Z,1.86
2018-03-03T21:15:35.578Z,1.83
2018-03-03T21:18:02.989Z,1.84
2018-03-03T21:20:30.405Z,1.93
2018-03-03T21:22:57.826Z,1.92
2018-03-03T21:25:25.259Z,1.88
2018-03-03T21:27:52.675Z,1.91
2018-03-03T21:30:20.094Z,1.92
2018-03-03T21:32:47.510Z,1.91
2018-03-03T21:35:14.931Z,1.90
2018-03-03T21:37:42.358Z,1.83
2018-03-03T21:40:09.786Z,1.86
2018-03-03T21:42:37.276Z,1.86
2018-03-03T21:45:04.698Z,1.82
2018-03-03T21:47:32.114Z,1.88
2018-03-03T21:49:59.538Z,1.88
2018-03-03T21:52:26.962Z,1.85
2018-03-03T21:54:54.552Z,1.84
2018-03-03T21:57:21.977Z,1.82
2018-03-03T21:59:49.393Z,1.83
2018-03-03T22:02:16.833Z,1.88
2018-03-03T22:04:44.245Z,1.87
2018-03-03T22:07:11.661Z,1.88
2018-03-03T22:09:39.089Z,1.87
2018-03-03T22:12:06.501Z,1.92
2018-03-03T22:14:33.930Z,1.91
2018-03-03T22:17:01.347Z,2.03
2018-03-03T22:19:28.758Z,2.10
2018-03-03T22:21:56.193Z,2.15
2018-03-03T22:24:23.627Z,2.22
2018-03-03T22:26:51.054Z,2.22
2018-03-03T22:29:18.477Z,2.31
2018-03-03T22:31:45.964Z,2.43
2018-03-03T22:34:13.375Z,2.38
2018-03-03T22:36:40.802Z,2.47
2018-03-03T22:39:08.221Z,2.49
2018-03-03T22:41:35.639Z,2.55
2018-03-03T22:44:03.061Z,2.51
2018-03-03T22:46:30.481Z,2.50
2018-03-03T22:48:57.914Z,2.51
2018-03-03T22:51:25.326Z,2.55
2018-03-03T22:53:52.749Z,2.59
2018-03-03T22:56:20.174Z,2.59
2018-03-03T22:58:47.592Z,2.62
2018-03-03T23:01:15.031Z,2.65
2018-03-03T23:03:42.450Z,2.66
2018-03-03T23:06:09.866Z,2.72
2018-03-03T23:08:37.290Z,2.75
2018-03-03T23:11:04.706Z,2.75
2018-03-03T23:13:32.139Z,2.76
2018-03-03T23:15:59.563Z,2.73
2018-03-03T23:18:26.981Z,2.80
2018-03-03T23:20:54.410Z,2.80
2018-03-03T23:23:21.826Z,2.86
2018-03-03T23:25:49.250Z,2.82
2018-03-03T23:28:16.676Z,2.91
2018-03-03T23:30:44.093Z,2.89
2018-03-03T23:33:11.506Z,2.90
2018-03-03T23:35:38.937Z,2.95
2018-03-03T23:38:06.361Z,2.89
2018-03-03T23:40:33.781Z,2.89
2018-03-03T23:43:01.202Z,3.01
2018-03-03T23:45:28.622Z,3.06
2018-03-03T23:47:56.046Z,3.06
2018-03-03T23:50:23.474Z,3.18
2018-03-03T23:52:50.886Z,3.21
2018-03-03T23:55:18.312Z,3.23
2018-03-03T23:57:45.729Z,3.21
